Time;durP1;ratioP1;P1;durP2;ratioP2;P2;SDS_P1;SDS_P2;PMS_P1;PMS_P2;Temp;Humidity;BMP_temperature;BMP_pressure;BME280_temperature;BME280_humidity;BME280_pressure;Samples;Min_cycle;Max_cycle;Signal;HPM_P1;HPM_P2
2022/08/12 00:43:00;;;;;;;2.1;1.8;;;;;;;23.0;62.4;101640;;;;
2022/08/12 00:44:03;;;;;;;2.1;1.8;;;;;;;23.0;62.7;101640;;;;
2022/08/12 00:45:00;;;;;;;2.1;1.8;;;;;;;23.0;62.7;101640;;;;
2022/08/12 00:47:00;;;;;;;2.1;1.8;;;;;;;22.9;63.7;101650;;;;
2022/08/12 00:48:00;;;;;;;2.1;1.8;;;;;;;22.9;63.7;101650;;;;
2022/08/12 00:49:00;;;;;;;2.1;1.8;;;;;;;22.9;64.3;101650;;;;
2022/08/12 00:50:00;;;;;;;2.1;1.8;;;;;;;22.9;64.3;101650;;;;
2022/08/12 00:51:00;;;;;;;2.1;1.8;;;;;;;22.8;64.1;101650;;;;
2022/08/12 00:52:08;;;;;;;2.1;1.8;;;;;;;22.8;64.1;101650;;;;
2022/08/12 00:53:01;;;;;;;2.1;1.8;;;;;;;22.9;64.3;101650;;;;
2022/08/12 00:54:00;;;;;;;1.4;0.5;;;;;;;22.9;64.3;101650;;;;
2022/08/12 00:55:01;;;;;;;1.4;0.5;;;;;;;23.0;63.5;101640;;;;
2022/08/12 00:56:00;;;;;;;1.4;0.5;;;;;;;23.0;63.5;101640;;;;
2022/08/12 00:57:03;;;;;;;1.4;0.5;;;;;;;22.9;64.4;101640;;;;
2022/08/12 00:58:02;;;;;;;1.4;0.5;;;;;;;22.8;65.4;101650;;;;
2022/08/12 00:59:02;;;;;;;1.4;0.5;;;;;;;22.8;65.4;101650;;;;
2022/08/12 01:00:07;;;;;;;1.4;0.5;;;;;;;22.9;64.9;101650;;;;
2022/08/12 01:01:02;;;;;;;1.4;0.5;;;;;;;22.9;64.9;101650;;;;
2022/08/12 01:02:11;;;;;;;1.4;0.5;;;;;;;22.8;64.8;101650;;;;
2022/08/12 01:03:01;;;;;;;1.4;0.5;;;;;;;22.8;64.8;101650;;;;
2022/08/12 01:12:00;;;;;;;1.4;0.5;;;;;;;22.9;63.9;101650;;;;
2022/08/12 01:13:11;;;;;;;1.4;0.5;;;;;;;22.9;63.9;101640;;;;
2022/08/12 01:14:01;;;;;;;0.1;0.1;;;;;;;22.9;63.9;101640;;;;
2022/08/12 01:15:00;;;;;;;0.1;0.1;;;;;;;22.9;65.3;101640;;;;
2022/08/12 01:16:02;;;;;;;0.1;0.1;;;;;;;22.9;65.3;101640;;;;
2022/08/12 01:17:00;;;;;;;0.1;0.1;;;;;;;22.9;64.3;101650;;;;
2022/08/12 01:18:04;;;;;;;0.1;0.1;;;;;;;22.7;66.2;101650;;;;
2022/08/12 01:19:00;;;;;;;0.1;0.1;;;;;;;22.7;66.2;101650;;;;
2022/08/12 01:20:03;;;;;;;0.1;0.1;;;;;;;22.8;65.9;101650;;;;
2022/08/12 01:21:10;;;;;;;0.1;0.1;;;;;;;22.8;65.9;101650;;;;
2022/08/12 01:22:10;;;;;;;0.1;0.1;;;;;;;22.8;66.9;101650;;;;
2022/08/12 01:23:10;;;;;;;0.1;0.1;;;;;;;22.8;66.9;101650;;;;
2022/08/12 01:24:20;;;;;;;0.1;0.1;;;;;;;22.7;67.6;101640;;;;
2022/08/12 01:25:11;;;;;;;0.1;0.1;;;;;;;22.7;67.6;101640;;;;
2022/08/12 01:26:02;;;;;;;0.1;0.1;;;;;;;22.7;67.6;101640;;;;
2022/08/12 01:27:02;;;;;;;0.1;0.1;;;;;;;22.5;69.2;101650;;;;
2022/08/12 01:28:01;;;;;;;0.1;0.1;;;;;;;22.5;69.2;101650;;;;
2022/08/12 01:29:02;;;;;;;0.1;0.1;;;;;;;22.4;69.3;101650;;;;
2022/08/12 01:30:05;;;;;;;0.1;0.1;;;;;;;22.5;69.3;101650;;;;
2022/08/12 01:31:03;;;;;;;0.1;0.1;;;;;;;22.5;69.3;101650;;;;
2022/08/12 01:32:04;;;;;;;0.1;0.1;;;;;;;22.4;69.5;101650;;;;
2022/08/12 01:33:01;;;;;;;0.1;0.1;;;;;;;22.4;69.5;101650;;;;
2022/08/12 01:34:02;;;;;;;0.2;0.2;;;;;;;22.4;69.5;101650;;;;
2022/08/12 01:35:04;;;;;;;0.2;0.2;;;;;;;22.5;69.2;101640;;;;
2022/08/12 01:36:08;;;;;;;0.2;0.2;;;;;;;22.4;69.8;101640;;;;
2022/08/12 01:37:01;;;;;;;0.2;0.2;;;;;;;22.4;69.8;101640;;;;
2022/08/12 01:38:03;;;;;;;0.2;0.2;;;;;;;22.4;69.8;101640;;;;
2022/08/12 01:39:00;;;;;;;0.2;0.2;;;;;;;22.3;72.0;101640;;;;
2022/08/12 01:40:10;;;;;;;0.2;0.2;;;;;;;22.2;72.8;101640;;;;
2022/08/12 01:41:01;;;;;;;0.2;0.2;;;;;;;22.2;72.8;101640;;;;
2022/08/12 01:42:02;;;;;;;0.2;0.2;;;;;;;22.3;72.0;101640;;;;
2022/08/12 01:43:08;;;;;;;0.2;0.2;;;;;;;22.3;72.0;101640;;;;
2022/08/12 01:44:01;;;;;;;0.2;0.2;;;;;;;22.3;72.0;101640;;;;
2022/08/12 01:45:00;;;;;;;0.2;0.2;;;;;;;22.1;72.9;101640;;;;
2022/08/12 01:46:11;;;;;;;0.2;0.2;;;;;;;22.2;72.8;101640;;;;
2022/08/12 01:47:10;;;;;;;0.2;0.2;;;;;;;22.2;72.8;101640;;;;
2022/08/12 01:48:11;;;;;;;0.2;0.2;;;;;;;22.3;71.4;101640;;;;
2022/08/12 01:49:00;;;;;;;0.2;0.2;;;;;;;22.3;71.4;101640;;;;
2022/08/12 01:50:00;;;;;;;0.2;0.2;;;;;;;22.3;71.4;101640;;;;
2022/08/12 01:51:06;;;;;;;0.2;0.2;;;;;;;22.3;71.3;101640;;;;
2022/08/12 01:52:10;;;;;;;0.2;0.2;;;;;;;22.3;72.3;101640;;;;
2022/08/12 01:53:04;;;;;;;0.2;0.2;;;;;;;22.3;72.3;101640;;;;
2022/08/12 01:54:04;;;;;;;0.4;0.4;;;;;;;22.3;72.1;101640;;;;
2022/08/12 01:55:01;;;;;;;0.4;0.4;;;;;;;22.3;72.1;101640;;;;
2022/08/12 01:56:01;;;;;;;0.4;0.4;;;;;;;22.3;72.1;101640;;;;
2022/08/12 01:57:01;;;;;;;0.4;0.4;;;;;;;22.2;73.3;101640;;;;
2022/08/12 01:58:10;;;;;;;0.4;0.4;;;;;;;22.2;73.2;101640;;;;
2022/08/12 02:00:03;;;;;;;0.4;0.4;;;;;;;22.2;73.8;101640;;;;
2022/08/12 02:01:06;;;;;;;0.4;0.4;;;;;;;22.2;73.8;101640;;;;
2022/08/12 02:02:02;;;;;;;0.4;0.4;;;;;;;22.2;73.8;101640;;;;
2022/08/12 02:03:10;;;;;;;0.4;0.4;;;;;;;22.2;72.6;101640;;;;
2022/08/12 02:12:09;;;;;;;0.4;0.4;;;;;;;21.9;76.1;101640;;;;
2022/08/12 02:13:01;;;;;;;0.4;0.4;;;;;;;21.9;76.1;101640;;;;
2022/08/12 02:14:05;;;;;;;0.2;0.2;;;;;;;21.9;79.6;101630;;;;
2022/08/12 02:15:11;;;;;;;0.2;0.2;;;;;;;21.9;79.6;101630;;;;
2022/08/12 02:16:10;;;;;;;0.2;0.2;;;;;;;21.9;78.9;101630;;;;
2022/08/12 02:17:10;;;;;;;0.2;0.2;;;;;;;21.9;78.9;101630;;;;
2022/08/12 02:18:03;;;;;;;0.2;0.2;;;;;;;21.7;80.3;101630;;;;
2022/08/12 02:19:20;;;;;;;0.2;0.2;;;;;;;21.7;80.3;101630;;;;
2022/08/12 02:20:03;;;;;;;0.2;0.2;;;;;;;21.8;79.4;101630;;;;
2022/08/12 02:21:02;;;;;;;0.2;0.2;;;;;;;21.8;79.4;101630;;;;
2022/08/12 02:22:03;;;;;;;0.2;0.2;;;;;;;21.9;81.1;101630;;;;
2022/08/12 02:23:03;;;;;;;0.2;0.2;;;;;;;21.9;81.1;101630;;;;
2022/08/12 02:24:00;;;;;;;0.2;0.2;;;;;;;21.9;81.1;101630;;;;
2022/08/12 02:25:05;;;;;;;0.2;0.2;;;;;;;21.6;82.4;101630;;;;
2022/08/12 02:26:03;;;;;;;0.2;0.2;;;;;;;21.6;84.0;101630;;;;
2022/08/12 02:27:01;;;;;;;0.2;0.2;;;;;;;21.6;84.0;101630;;;;
2022/08/12 02:28:07;;;;;;;0.2;0.2;;;;;;;21.7;83.5;101630;;;;
2022/08/12 02:29:00;;;;;;;0.2;0.2;;;;;;;21.7;83.5;101630;;;;
2022/08/12 02:30:00;;;;;;;0.2;0.2;;;;;;;21.7;83.5;101630;;;;
2022/08/12 02:31:03;;;;;;;0.2;0.2;;;;;;;21.8;80.6;101630;;;;
2022/08/12 02:32:01;;;;;;;0.2;0.2;;;;;;;21.8;80.6;101630;;;;
2022/08/12 02:33:00;;;;;;;0.2;0.2;;;;;;;21.7;84.9;101630;;;;
2022/08/12 02:34:00;;;;;;;0.2;0.2;;;;;;;21.7;84.9;101630;;;;
2022/08/12 02:35:00;;;;;;;0.2;0.2;;;;;;;21.5;86.1;101630;;;;
2022/08/12 02:36:01;;;;;;;0.2;0.2;;;;;;;21.5;86.1;101630;;;;
2022/08/12 02:37:03;;;;;;;0.2;0.2;;;;;;;21.6;84.7;101630;;;;
2022/08/12 02:38:03;;;;;;;0.2;0.2;;;;;;;21.7;85.8;101630;;;;
2022/08/12 02:39:02;;;;;;;0.2;0.2;;;;;;;21.7;85.8;101630;;;;
2022/08/12 02:40:02;;;;;;;0.2;0.2;;;;;;;21.7;85.8;101630;;;;
2022/08/12 02:41:02;;;;;;;0.2;0.2;;;;;;;21.6;86.7;101630;;;;
2022/08/12 02:42:03;;;;;;;0.2;0.2;;;;;;;21.4;87.7;101630;;;;
2022/08/12 02:43:11;;;;;;;0.2;0.2;;;;;;;21.4;87.7;101630;;;;
2022/08/12 02:44:03;;;;;;;0.2;0.2;;;;;;;21.5;86.7;101630;;;;
2022/08/12 02:45:05;;;;;;;0.2;0.2;;;;;;;21.5;86.7;101630;;;;
2022/08/12 02:46:03;;;;;;;0.2;0.2;;;;;;;21.5;88.5;101630;;;;
2022/08/12 02:47:02;;;;;;;0.2;0.2;;;;;;;21.5;88.5;101630;;;;
2022/08/12 02:48:05;;;;;;;0.2;0.2;;;;;;;21.5;87.6;101630;;;;
2022/08/12 02:49:03;;;;;;;0.2;0.2;;;;;;;21.5;87.6;101630;;;;
2022/08/12 02:50:02;;;;;;;0.2;0.2;;;;;;;21.5;88.5;101630;;;;
2022/08/12 02:51:03;;;;;;;0.2;0.2;;;;;;;21.5;88.5;101630;;;;
2022/08/12 02:52:00;;;;;;;0.2;0.2;;;;;;;21.5;88.5;101630;;;;
2022/08/12 02:53:01;;;;;;;0.2;0.2;;;;;;;21.4;88.9;101630;;;;
2022/08/12 02:54:06;;;;;;;0.1;0.1;;;;;;;21.6;84.2;101630;;;;
2022/08/12 02:55:06;;;;;;;0.1;0.1;;;;;;;21.6;84.2;101630;;;;
2022/08/12 02:56:02;;;;;;;0.1;0.1;;;;;;;21.6;84.2;101630;;;;
2022/08/12 02:57:00;;;;;;;0.1;0.1;;;;;;;21.5;87.0;101630;;;;
2022/08/12 02:58:08;;;;;;;0.1;0.1;;;;;;;21.4;90.0;101630;;;;
2022/08/12 02:59:00;;;;;;;0.1;0.1;;;;;;;21.4;90.0;101630;;;;
2022/08/12 03:00:03;;;;;;;0.1;0.1;;;;;;;21.4;90.0;101630;;;;
2022/08/12 03:01:01;;;;;;;0.1;0.1;;;;;;;21.3;90.3;101630;;;;
2022/08/12 03:02:02;;;;;;;0.1;0.1;;;;;;;21.3;90.3;101630;;;;
2022/08/12 03:03:03;;;;;;;0.1;0.1;;;;;;;21.2;92.9;101620;;;;
2022/08/12 03:04:03;;;;;;;0.1;0.1;;;;;;;21.2;91.1;101620;;;;
2022/08/12 03:05:01;;;;;;;0.1;0.1;;;;;;;21.2;91.1;101620;;;;
2022/08/12 03:06:02;;;;;;;0.1;0.1;;;;;;;21.3;90.2;101620;;;;
2022/08/12 03:07:08;;;;;;;0.1;0.1;;;;;;;21.3;90.2;101620;;;;
2022/08/12 03:08:03;;;;;;;0.1;0.1;;;;;;;21.3;91.7;101620;;;;
2022/08/12 03:09:02;;;;;;;0.1;0.1;;;;;;;21.3;91.7;101620;;;;
2022/08/12 03:10:12;;;;;;;0.1;0.1;;;;;;;21.2;91.6;101610;;;;
2022/08/12 03:11:03;;;;;;;0.1;0.1;;;;;;;21.2;91.6;101610;;;;
2022/08/12 03:12:06;;;;;;;0.1;0.1;;;;;;;21.3;90.4;101610;;;;
2022/08/12 03:13:02;;;;;;;0.1;0.1;;;;;;;21.3;90.4;101610;;;;
2022/08/12 03:14:00;;;;;;;0.3;0.3;;;;;;;21.3;90.4;101610;;;;
2022/08/12 03:15:03;;;;;;;0.3;0.3;;;;;;;21.3;89.4;101610;;;;
2022/08/12 03:16:00;;;;;;;0.3;0.3;;;;;;;21.3;89.4;101610;;;;
2022/08/12 03:17:10;;;;;;;0.3;0.3;;;;;;;21.2;90.8;101610;;;;
2022/08/12 03:18:20;;;;;;;0.3;0.3;;;;;;;21.2;91.0;101610;;;;
2022/08/12 03:19:00;;;;;;;0.3;0.3;;;;;;;21.2;91.0;101610;;;;
2022/08/12 03:20:11;;;;;;;0.3;0.3;;;;;;;21.1;92.0;101610;;;;
2022/08/12 03:21:00;;;;;;;0.3;0.3;;;;;;;21.1;92.0;101610;;;;
2022/08/12 03:22:13;;;;;;;0.3;0.3;;;;;;;21.1;91.5;101610;;;;
2022/08/12 03:23:01;;;;;;;0.3;0.3;;;;;;;21.1;91.5;101610;;;;
2022/08/12 03:24:01;;;;;;;0.3;0.3;;;;;;;21.1;91.5;101610;;;;
2022/08/12 03:25:02;;;;;;;0.3;0.3;;;;;;;21.0;93.9;101610;;;;
2022/08/12 03:26:01;;;;;;;0.3;0.3;;;;;;;21.0;93.9;101610;;;;
2022/08/12 03:27:01;;;;;;;0.3;0.3;;;;;;;21.1;91.0;101610;;;;
2022/08/12 03:28:02;;;;;;;0.3;0.3;;;;;;;21.1;91.0;101610;;;;
2022/08/12 03:29:03;;;;;;;0.3;0.3;;;;;;;21.0;95.5;101610;;;;
2022/08/12 03:30:00;;;;;;;0.3;0.3;;;;;;;21.0;95.5;101610;;;;
2022/08/12 03:31:03;;;;;;;0.3;0.3;;;;;;;21.1;92.2;101610;;;;
2022/08/12 03:32:01;;;;;;;0.3;0.3;;;;;;;21.1;92.2;101610;;;;
2022/08/12 03:33:01;;;;;;;0.3;0.3;;;;;;;21.1;92.4;101610;;;;
2022/08/12 03:34:03;;;;;;;0.5;0.5;;;;;;;21.0;93.9;101610;;;;
2022/08/12 03:35:00;;;;;;;0.5;0.5;;;;;;;21.0;93.9;101610;;;;
2022/08/12 03:36:02;;;;;;;0.5;0.5;;;;;;;21.1;90.5;101610;;;;
2022/08/12 03:37:01;;;;;;;0.5;0.5;;;;;;;21.1;90.5;101610;;;;
2022/08/12 03:38:01;;;;;;;0.5;0.5;;;;;;;21.1;90.5;101610;;;;
2022/08/12 03:40:00;;;;;;;0.5;0.5;;;;;;;21.1;91.5;101610;;;;
2022/08/12 03:42:08;;;;;;;0.5;0.5;;;;;;;20.9;93.3;101610;;;;
2022/08/12 04:01:00;;;;;;;0.4;0.4;;;;;;;20.8;95.6;101610;;;;
2022/08/12 04:02:00;;;;;;;0.4;0.4;;;;;;;20.8;95.6;101610;;;;
2022/08/12 04:03:01;;;;;;;0.4;0.4;;;;;;;20.9;93.2;101610;;;;
2022/08/12 04:04:02;;;;;;;0.4;0.4;;;;;;;20.9;93.2;101610;;;;
2022/08/12 04:05:00;;;;;;;0.4;0.4;;;;;;;20.9;90.9;101610;;;;
2022/08/12 04:06:00;;;;;;;0.4;0.4;;;;;;;20.9;90.9;101610;;;;
2022/08/12 04:07:02;;;;;;;0.4;0.4;;;;;;;20.9;93.1;101610;;;;
2022/08/12 04:08:00;;;;;;;0.4;0.4;;;;;;;20.9;93.1;101610;;;;
2022/08/12 04:09:00;;;;;;;0.4;0.4;;;;;;;20.8;94.0;101610;;;;
2022/08/12 04:10:00;;;;;;;0.4;0.4;;;;;;;20.8;94.0;101610;;;;
2022/08/12 04:14:10;;;;;;;0.2;0.2;;;;;;;20.8;95.0;101610;;;;
2022/08/12 04:15:00;;;;;;;0.2;0.2;;;;;;;20.8;95.0;101610;;;;
2022/08/12 04:16:01;;;;;;;0.2;0.2;;;;;;;20.8;95.0;101610;;;;
2022/08/12 04:17:00;;;;;;;0.2;0.2;;;;;;;20.8;94.8;101610;;;;
2022/08/12 04:18:07;;;;;;;0.2;0.2;;;;;;;20.6;99.2;101610;;;;
2022/08/12 04:19:01;;;;;;;0.2;0.2;;;;;;;20.6;99.2;101610;;;;
2022/08/12 04:20:00;;;;;;;0.2;0.2;;;;;;;20.6;99.2;101610;;;;
2022/08/12 04:21:01;;;;;;;0.2;0.2;;;;;;;20.4;100.0;101610;;;;
2022/08/12 04:22:03;;;;;;;0.2;0.2;;;;;;;20.6;94.0;101610;;;;
2022/08/12 04:23:01;;;;;;;0.2;0.2;;;;;;;20.6;94.0;101610;;;;
2022/08/12 04:24:00;;;;;;;0.2;0.2;;;;;;;20.6;94.0;101610;;;;
2022/08/12 04:25:00;;;;;;;0.2;0.2;;;;;;;20.6;99.2;101610;;;;
2022/08/12 04:26:00;;;;;;;0.2;0.2;;;;;;;20.6;99.2;101610;;;;
2022/08/12 04:27:00;;;;;;;0.2;0.2;;;;;;;20.6;98.3;101620;;;;
2022/08/12 04:28:10;;;;;;;0.2;0.2;;;;;;;20.6;97.0;101610;;;;
2022/08/12 04:29:00;;;;;;;0.2;0.2;;;;;;;20.6;97.0;101610;;;;
2022/08/12 04:30:10;;;;;;;0.2;0.2;;;;;;;20.6;96.4;101610;;;;
2022/08/12 04:31:00;;;;;;;0.2;0.2;;;;;;;20.6;96.4;101610;;;;
2022/08/12 04:32:00;;;;;;;0.2;0.2;;;;;;;20.6;96.4;101610;;;;
2022/08/12 04:33:00;;;;;;;0.2;0.2;;;;;;;20.5;99.3;101610;;;;
2022/08/12 04:34:01;;;;;;;0.2;0.2;;;;;;;20.5;99.3;101610;;;;
2022/08/12 04:35:00;;;;;;;0.2;0.2;;;;;;;20.6;98.7;101610;;;;
2022/08/12 04:36:00;;;;;;;0.2;0.2;;;;;;;20.6;98.7;101610;;;;
2022/08/12 04:37:00;;;;;;;0.2;0.2;;;;;;;20.6;96.9;101620;;;;
2022/08/12 04:38:01;;;;;;;0.2;0.2;;;;;;;20.6;96.9;101620;;;;
2022/08/12 04:39:01;;;;;;;0.2;0.2;;;;;;;20.5;100.0;101620;;;;
2022/08/12 04:40:00;;;;;;;0.2;0.2;;;;;;;20.5;100.0;101620;;;;
2022/08/12 04:41:00;;;;;;;0.2;0.2;;;;;;;20.5;98.3;101620;;;;
2022/08/12 04:42:00;;;;;;;0.2;0.2;;;;;;;20.5;98.3;101620;;;;
2022/08/12 04:43:00;;;;;;;0.2;0.2;;;;;;;20.5;98.6;101610;;;;
2022/08/12 04:44:02;;;;;;;0.2;0.2;;;;;;;20.4;97.4;101620;;;;
2022/08/12 04:45:00;;;;;;;0.2;0.2;;;;;;;20.4;97.4;101620;;;;
2022/08/12 04:46:01;;;;;;;0.2;0.2;;;;;;;20.4;97.4;101620;;;;
2022/08/12 04:47:00;;;;;;;0.2;0.2;;;;;;;20.5;96.9;101620;;;;
2022/08/12 04:48:00;;;;;;;0.2;0.2;;;;;;;20.5;96.9;101620;;;;
2022/08/12 04:49:01;;;;;;;0.2;0.2;;;;;;;20.5;99.9;101610;;;;
2022/08/12 04:50:00;;;;;;;0.2;0.2;;;;;;;20.5;99.9;101610;;;;
2022/08/12 04:51:00;;;;;;;0.2;0.2;;;;;;;20.6;94.2;101620;;;;
2022/08/12 04:52:02;;;;;;;0.2;0.2;;;;;;;20.6;94.2;101620;;;;
2022/08/12 04:53:01;;;;;;;0.2;0.2;;;;;;;20.5;97.5;101620;;;;
2022/08/12 04:54:01;;;;;;;0.4;0.4;;;;;;;20.5;97.5;101620;;;;
2022/08/12 04:55:01;;;;;;;0.4;0.4;;;;;;;20.5;96.9;101610;;;;
2022/08/12 04:56:00;;;;;;;0.4;0.4;;;;;;;20.5;96.9;101610;;;;
2022/08/12 04:57:08;;;;;;;0.4;0.4;;;;;;;20.5;99.2;101610;;;;
2022/08/12 04:58:00;;;;;;;0.4;0.4;;;;;;;20.5;99.2;101610;;;;
2022/08/12 04:59:00;;;;;;;0.4;0.4;;;;;;;20.5;98.8;101610;;;;
2022/08/12 05:00:00;;;;;;;0.4;0.4;;;;;;;20.5;98.8;101610;;;;
2022/08/12 05:01:00;;;;;;;0.4;0.4;;;;;;;20.5;97.7;101610;;;;
2022/08/12 05:02:00;;;;;;;0.4;0.4;;;;;;;20.5;97.7;101610;;;;
2022/08/12 05:03:00;;;;;;;0.4;0.4;;;;;;;20.5;100.0;101620;;;;
2022/08/12 05:04:01;;;;;;;0.4;0.4;;;;;;;20.5;100.0;101620;;;;
2022/08/12 05:05:01;;;;;;;0.4;0.4;;;;;;;20.4;99.8;101620;;;;
2022/08/12 05:06:01;;;;;;;0.4;0.4;;;;;;;20.4;99.8;101620;;;;
2022/08/12 05:07:01;;;;;;;0.4;0.4;;;;;;;20.5;96.0;101620;;;;
2022/08/12 05:08:00;;;;;;;0.4;0.4;;;;;;;20.5;96.0;101620;;;;
2022/08/12 05:09:00;;;;;;;0.4;0.4;;;;;;;20.4;100.0;101620;;;;
2022/08/12 05:10:02;;;;;;;0.4;0.4;;;;;;;20.5;96.0;101620;;;;
2022/08/12 05:11:00;;;;;;;0.4;0.4;;;;;;;20.5;96.0;101620;;;;
2022/08/12 05:12:00;;;;;;;0.4;0.4;;;;;;;20.5;96.0;101620;;;;
2022/08/12 05:13:01;;;;;;;0.4;0.4;;;;;;;20.6;95.4;101620;;;;
2022/08/12 05:14:00;;;;;;;0.3;0.3;;;;;;;20.6;95.4;101620;;;;
2022/08/12 05:15:00;;;;;;;0.3;0.3;;;;;;;20.7;95.4;101620;;;;
2022/08/12 05:16:05;;;;;;;0.3;0.3;;;;;;;20.5;100.0;101610;;;;
2022/08/12 05:17:00;;;;;;;0.3;0.3;;;;;;;20.5;100.0;101610;;;;
2022/08/12 05:18:10;;;;;;;0.3;0.3;;;;;;;20.4;100.0;101620;;;;
2022/08/12 05:19:00;;;;;;;0.3;0.3;;;;;;;20.4;100.0;101620;;;;
2022/08/12 05:20:00;;;;;;;0.3;0.3;;;;;;;20.4;100.0;101620;;;;
2022/08/12 05:21:00;;;;;;;0.3;0.3;;;;;;;20.4;100.0;101620;;;;
2022/08/12 05:22:00;;;;;;;0.3;0.3;;;;;;;20.4;100.0;101620;;;;
2022/08/12 05:23:13;;;;;;;0.3;0.3;;;;;;;20.3;100.0;101630;;;;
2022/08/12 05:24:00;;;;;;;0.3;0.3;;;;;;;20.3;100.0;101630;;;;
2022/08/12 05:25:00;;;;;;;0.3;0.3;;;;;;;20.4;100.0;101630;;;;
2022/08/12 05:26:00;;;;;;;0.3;0.3;;;;;;;20.4;100.0;101630;;;;
2022/08/12 05:27:00;;;;;;;0.3;0.3;;;;;;;20.3;100.0;101630;;;;
2022/08/12 05:28:00;;;;;;;0.3;0.3;;;;;;;20.3;100.0;101630;;;;
2022/08/12 05:29:01;;;;;;;0.3;0.3;;;;;;;20.5;99.4;101630;;;;
2022/08/12 05:30:09;;;;;;;0.3;0.3;;;;;;;20.6;100.0;101630;;;;
2022/08/12 05:31:00;;;;;;;0.3;0.3;;;;;;;20.6;100.0;101630;;;;
2022/08/12 05:32:01;;;;;;;0.3;0.3;;;;;;;20.6;100.0;101630;;;;
2022/08/12 05:33:05;;;;;;;0.3;0.3;;;;;;;20.5;100.0;101630;;;;
2022/08/12 05:34:00;;;;;;;0.2;0.2;;;;;;;20.5;100.0;101630;;;;
2022/08/12 05:35:05;;;;;;;0.2;0.2;;;;;;;20.6;98.7;101620;;;;
2022/08/12 05:36:00;;;;;;;0.2;0.2;;;;;;;20.6;98.7;101620;;;;
2022/08/12 05:37:00;;;;;;;0.2;0.2;;;;;;;20.6;100.0;101620;;;;
2022/08/12 05:39:00;;;;;;;0.2;0.2;;;;;;;20.5;100.0;101630;;;;
2022/08/12 05:40:00;;;;;;;0.2;0.2;;;;;;;20.5;100.0;101630;;;;
2022/08/12 05:41:01;;;;;;;0.2;0.2;;;;;;;20.6;100.0;101630;;;;
2022/08/12 05:42:00;;;;;;;0.2;0.2;;;;;;;20.6;100.0;101630;;;;
2022/08/12 05:43:00;;;;;;;0.2;0.2;;;;;;;20.6;100.0;101630;;;;
2022/08/12 05:44:03;;;;;;;0.2;0.2;;;;;;;20.6;100.0;101630;;;;
2022/08/12 05:45:00;;;;;;;0.2;0.2;;;;;;;20.6;100.0;101630;;;;
2022/08/12 05:46:00;;;;;;;0.2;0.2;;;;;;;20.6;100.0;101630;;;;
2022/08/12 05:47:00;;;;;;;0.2;0.2;;;;;;;20.7;100.0;101630;;;;
2022/08/12 05:48:01;;;;;;;0.2;0.2;;;;;;;20.7;100.0;101630;;;;
2022/08/12 05:49:01;;;;;;;0.2;0.2;;;;;;;20.6;100.0;101630;;;;
2022/08/12 05:50:00;;;;;;;0.2;0.2;;;;;;;20.6;100.0;101630;;;;
2022/08/12 05:51:00;;;;;;;0.2;0.2;;;;;;;20.7;100.0;101630;;;;
2022/08/12 05:52:01;;;;;;;0.2;0.2;;;;;;;20.7;100.0;101630;;;;
2022/08/12 05:53:01;;;;;;;0.2;0.2;;;;;;;20.7;100.0;101630;;;;
2022/08/12 05:54:00;;;;;;;0.3;0.3;;;;;;;20.7;100.0;101630;;;;
2022/08/12 05:55:01;;;;;;;0.3;0.3;;;;;;;20.7;100.0;101640;;;;
2022/08/12 05:56:00;;;;;;;0.3;0.3;;;;;;;20.7;100.0;101640;;;;
2022/08/12 05:57:00;;;;;;;0.3;0.3;;;;;;;20.9;100.0;101640;;;;
2022/08/12 05:58:01;;;;;;;0.3;0.3;;;;;;;20.9;100.0;101640;;;;
2022/08/12 05:59:01;;;;;;;0.3;0.3;;;;;;;20.9;100.0;101640;;;;
2022/08/12 06:00:02;;;;;;;0.3;0.3;;;;;;;20.9;100.0;101640;;;;
2022/08/12 06:01:10;;;;;;;0.3;0.3;;;;;;;20.9;100.0;101650;;;;
2022/08/12 06:02:10;;;;;;;0.3;0.3;;;;;;;20.8;100.0;101640;;;;
2022/08/12 06:03:01;;;;;;;0.3;0.3;;;;;;;20.8;100.0;101640;;;;
2022/08/12 06:04:00;;;;;;;0.3;0.3;;;;;;;20.8;100.0;101640;;;;
2022/08/12 06:05:01;;;;;;;0.3;0.3;;;;;;;21.0;100.0;101650;;;;
2022/08/12 06:06:00;;;;;;;0.3;0.3;;;;;;;21.0;100.0;101650;;;;
2022/08/12 06:07:01;;;;;;;0.3;0.3;;;;;;;21.0;100.0;101650;;;;
2022/08/12 06:08:04;;;;;;;0.3;0.3;;;;;;;21.1;100.0;101650;;;;
2022/08/12 06:09:00;;;;;;;0.3;0.3;;;;;;;21.1;100.0;101650;;;;
2022/08/12 06:10:00;;;;;;;0.3;0.3;;;;;;;21.1;100.0;101650;;;;
2022/08/12 06:11:01;;;;;;;0.3;0.3;;;;;;;21.3;96.3;101640;;;;
2022/08/12 06:12:06;;;;;;;0.3;0.3;;;;;;;21.2;100.0;101640;;;;
2022/08/12 06:13:01;;;;;;;0.3;0.3;;;;;;;21.2;100.0;101640;;;;
2022/08/12 06:14:00;;;;;;;0.1;0.1;;;;;;;21.2;100.0;101640;;;;
2022/08/12 06:15:01;;;;;;;0.1;0.1;;;;;;;21.3;100.0;101650;;;;
2022/08/12 06:16:00;;;;;;;0.1;0.1;;;;;;;21.3;100.0;101650;;;;
2022/08/12 06:17:00;;;;;;;0.1;0.1;;;;;;;21.3;100.0;101650;;;;
2022/08/12 06:18:05;;;;;;;0.1;0.1;;;;;;;21.4;100.0;101640;;;;
2022/08/12 06:19:00;;;;;;;0.1;0.1;;;;;;;21.4;100.0;101640;;;;
2022/08/12 06:20:12;;;;;;;0.1;0.1;;;;;;;21.5;100.0;101650;;;;
2022/08/12 06:21:02;;;;;;;0.1;0.1;;;;;;;21.5;100.0;101650;;;;
2022/08/12 06:22:00;;;;;;;0.1;0.1;;;;;;;21.5;100.0;101650;;;;
2022/08/12 06:23:01;;;;;;;0.1;0.1;;;;;;;21.7;100.0;101650;;;;
2022/08/12 06:24:00;;;;;;;0.1;0.1;;;;;;;21.7;100.0;101650;;;;
2022/08/12 06:25:00;;;;;;;0.1;0.1;;;;;;;21.6;100.0;101650;;;;
2022/08/12 06:26:00;;;;;;;0.1;0.1;;;;;;;21.6;100.0;101650;;;;
2022/08/12 06:27:00;;;;;;;0.1;0.1;;;;;;;21.6;100.0;101650;;;;
2022/08/12 06:28:09;;;;;;;0.1;0.1;;;;;;;21.7;100.0;101650;;;;
2022/08/12 06:29:00;;;;;;;0.1;0.1;;;;;;;21.7;100.0;101650;;;;
2022/08/12 06:30:10;;;;;;;0.1;0.1;;;;;;;21.8;100.0;101650;;;;
2022/08/12 06:31:15;;;;;;;0.1;0.1;;;;;;;21.8;100.0;101650;;;;
2022/08/12 06:32:00;;;;;;;0.1;0.1;;;;;;;21.8;100.0;101650;;;;
2022/08/12 06:33:10;;;;;;;0.7;0.7;;;;;;;21.9;100.0;101660;;;;
2022/08/12 06:34:13;;;;;;;0.7;0.7;;;;;;;21.8;99.6;101660;;;;
2022/08/12 06:35:10;;;;;;;0.7;0.7;;;;;;;21.8;99.6;101660;;;;
2022/08/12 06:36:01;;;;;;;0.7;0.7;;;;;;;21.8;99.6;101660;;;;
2022/08/12 06:37:00;;;;;;;0.7;0.7;;;;;;;21.8;100.0;101650;;;;
2022/08/12 06:38:02;;;;;;;0.7;0.7;;;;;;;21.8;100.0;101650;;;;
2022/08/12 06:39:00;;;;;;;0.7;0.7;;;;;;;21.9;100.0;101650;;;;
2022/08/12 06:40:04;;;;;;;0.7;0.7;;;;;;;22.0;98.4;101660;;;;
2022/08/12 06:43:00;;;;;;;0.7;0.7;;;;;;;22.3;99.7;101650;;;;
2022/08/12 06:44:12;;;;;;;0.7;0.7;;;;;;;22.3;99.7;101650;;;;
2022/08/12 06:45:00;;;;;;;0.7;0.7;;;;;;;22.3;99.7;101650;;;;
2022/08/12 06:46:00;;;;;;;0.7;0.7;;;;;;;22.3;99.7;101650;;;;
2022/08/12 06:47:00;;;;;;;0.7;0.7;;;;;;;22.2;99.9;101650;;;;
2022/08/12 06:48:07;;;;;;;0.7;0.7;;;;;;;22.3;99.4;101640;;;;
2022/08/12 06:49:00;;;;;;;0.7;0.7;;;;;;;22.3;99.4;101640;;;;
2022/08/12 06:50:00;;;;;;;0.7;0.7;;;;;;;22.3;99.4;101640;;;;
2022/08/12 06:51:02;;;;;;;0.7;0.7;;;;;;;22.4;97.6;101640;;;;
2022/08/12 06:52:00;;;;;;;0.7;0.7;;;;;;;22.4;97.6;101640;;;;
2022/08/12 06:53:00;;;;;;;0.7;0.7;;;;;;;22.4;98.2;101650;;;;
2022/08/12 06:54:00;;;;;;;0.1;0.1;;;;;;;22.4;98.2;101650;;;;
2022/08/12 06:55:00;;;;;;;0.1;0.1;;;;;;;22.5;96.4;101630;;;;
2022/08/12 06:56:00;;;;;;;0.1;0.1;;;;;;;22.5;96.4;101630;;;;
2022/08/12 06:57:05;;;;;;;0.1;0.1;;;;;;;22.6;96.7;101630;;;;
2022/08/12 06:58:10;;;;;;;0.1;0.1;;;;;;;22.8;95.9;101630;;;;
2022/08/12 06:59:01;;;;;;;0.1;0.1;;;;;;;22.8;95.9;101630;;;;
2022/08/12 07:00:00;;;;;;;0.1;0.1;;;;;;;22.8;95.9;101630;;;;
2022/08/12 07:01:00;;;;;;;0.1;0.1;;;;;;;22.9;95.3;101630;;;;
2022/08/12 07:02:00;;;;;;;0.1;0.1;;;;;;;22.9;95.3;101630;;;;
2022/08/12 07:03:16;;;;;;;0.1;0.1;;;;;;;22.9;93.4;101630;;;;
2022/08/12 07:04:10;;;;;;;0.1;0.1;;;;;;;22.9;95.7;101630;;;;
2022/08/12 07:05:00;;;;;;;0.1;0.1;;;;;;;22.9;95.7;101630;;;;
2022/08/12 07:06:01;;;;;;;0.1;0.1;;;;;;;22.9;95.7;101630;;;;
2022/08/12 07:07:00;;;;;;;0.1;0.1;;;;;;;23.0;95.3;101630;;;;
2022/08/12 07:08:06;;;;;;;0.1;0.1;;;;;;;23.0;94.4;101630;;;;
2022/08/12 07:09:03;;;;;;;0.1;0.1;;;;;;;23.0;94.4;101630;;;;
2022/08/12 07:10:08;;;;;;;0.1;0.1;;;;;;;23.1;93.7;101620;;;;
2022/08/12 07:11:01;;;;;;;0.1;0.1;;;;;;;23.1;93.7;101620;;;;
2022/08/12 07:12:00;;;;;;;0.1;0.1;;;;;;;23.1;93.7;101620;;;;
2022/08/12 07:13:02;;;;;;;0.1;0.1;;;;;;;23.2;90.8;101620;;;;
2022/08/12 07:14:10;;;;;;;0.1;0.1;;;;;;;23.3;91.3;101630;;;;
2022/08/12 07:15:00;;;;;;;0.1;0.1;;;;;;;23.3;91.3;101630;;;;
2022/08/12 07:16:01;;;;;;;0.1;0.1;;;;;;;23.3;91.3;101630;;;;
2022/08/12 07:17:02;;;;;;;0.1;0.1;;;;;;;23.4;89.6;101630;;;;
2022/08/12 07:19:03;;;;;;;0.1;0.1;;;;;;;23.4;90.5;101630;;;;
2022/08/12 07:20:04;;;;;;;0.1;0.1;;;;;;;23.4;90.8;101630;;;;
2022/08/12 07:21:02;;;;;;;0.1;0.1;;;;;;;23.4;90.8;101630;;;;
2022/08/12 07:22:05;;;;;;;0.1;0.1;;;;;;;23.7;89.1;101630;;;;
2022/08/12 07:23:01;;;;;;;0.1;0.1;;;;;;;23.7;89.1;101630;;;;
2022/08/12 07:24:00;;;;;;;0.1;0.1;;;;;;;23.7;89.1;101630;;;;
2022/08/12 07:26:01;;;;;;;0.1;0.1;;;;;;;23.7;89.4;101640;;;;
2022/08/12 07:27:00;;;;;;;0.1;0.1;;;;;;;23.8;88.0;101640;;;;
2022/08/12 07:28:14;;;;;;;0.1;0.1;;;;;;;24.0;88.0;101650;;;;
2022/08/12 07:29:00;;;;;;;0.1;0.1;;;;;;;24.0;88.0;101650;;;;
2022/08/12 07:30:06;;;;;;;0.1;0.1;;;;;;;24.1;86.5;101640;;;;
2022/08/12 07:31:03;;;;;;;0.1;0.1;;;;;;;24.1;86.5;101640;;;;
2022/08/12 07:32:01;;;;;;;0.1;0.1;;;;;;;24.1;86.5;101640;;;;
2022/08/12 07:33:03;;;;;;;0.2;0.2;;;;;;;24.0;87.5;101640;;;;
2022/08/12 07:34:00;;;;;;;0.2;0.2;;;;;;;24.0;87.5;101640;;;;
2022/08/12 07:35:01;;;;;;;0.2;0.2;;;;;;;24.2;86.4;101640;;;;
2022/08/12 07:36:01;;;;;;;0.2;0.2;;;;;;;24.2;86.4;101640;;;;
2022/08/12 07:37:04;;;;;;;0.2;0.2;;;;;;;24.2;86.0;101640;;;;
2022/08/12 07:38:01;;;;;;;0.2;0.2;;;;;;;24.2;86.0;101640;;;;
2022/08/12 07:39:01;;;;;;;0.2;0.2;;;;;;;24.3;85.3;101650;;;;
2022/08/12 07:40:01;;;;;;;0.2;0.2;;;;;;;24.3;85.3;101650;;;;
2022/08/12 07:41:16;;;;;;;0.2;0.2;;;;;;;24.4;85.0;101650;;;;
2022/08/12 07:42:00;;;;;;;0.2;0.2;;;;;;;24.4;85.0;101650;;;;
2022/08/12 07:43:00;;;;;;;0.2;0.2;;;;;;;24.6;84.6;101640;;;;
2022/08/12 07:44:05;;;;;;;0.2;0.2;;;;;;;24.6;83.2;101650;;;;
2022/08/12 07:45:00;;;;;;;0.2;0.2;;;;;;;24.6;83.2;101650;;;;
2022/08/12 07:46:03;;;;;;;0.2;0.2;;;;;;;24.6;83.2;101650;;;;
2022/08/12 07:47:02;;;;;;;0.2;0.2;;;;;;;24.7;84.4;101650;;;;
2022/08/12 07:48:00;;;;;;;0.2;0.2;;;;;;;24.7;84.4;101650;;;;
2022/08/12 07:49:01;;;;;;;0.2;0.2;;;;;;;24.8;83.6;101650;;;;
2022/08/12 07:50:08;;;;;;;0.2;0.2;;;;;;;24.9;83.3;101650;;;;
2022/08/12 07:51:00;;;;;;;0.2;0.2;;;;;;;24.9;83.3;101650;;;;
2022/08/12 07:52:00;;;;;;;0.2;0.2;;;;;;;24.9;83.3;101650;;;;
2022/08/12 07:53:00;;;;;;;0.6;0.6;;;;;;;25.0;83.4;101650;;;;
2022/08/12 07:54:07;;;;;;;0.6;0.6;;;;;;;25.2;82.7;101650;;;;
2022/08/12 07:55:00;;;;;;;0.6;0.6;;;;;;;25.2;82.7;101650;;;;
2022/08/12 07:56:01;;;;;;;0.6;0.6;;;;;;;25.2;82.7;101650;;;;